Noi Bai International Airport
VVNB : now visible

Aeroporto :











RITROVATECI SU...

 
LOGIN :

Iscrizione | Disclaimer

   EN    FR    IT 

 









Sommario :    VFR   VFR Marginale   IFR   IFR Intensivo   IFR Molto Intensivo
Visibilità : 
Base nubi : 
>= 8 km
>= 3000ft
5 / 8 km
1000 / 3000 ft
1500m / 5 km
500 / 1000 ft
800 / 1500m
200 / 500 ft
< 800m
< 200 ft
Simboli :   Temporali  Nebbia  Neve Forte  Precipitazioni Forti  Vento > 20 kt






- Altitudine del aeroporto : 39 ft
- Codice IATA : HAN


VVNB - Noi Bai International

ULTIMO METAR :
  • 042030Z 08003KT 9999 SCT021 BKN025 28/25 Q1005 NOSIG

METARs OBSOLETI :
  • 042000Z 08004KT 9999 FEW018 28/25 Q1005 NOSIG
  • 041930Z 10005KT 8000 FEW019 28/25 Q1005 NOSIG
  • 041900Z 10006KT 8000 SCT020 28/25 Q1005 NOSIG
  • 041830Z 11004KT 090V180 8000 SCT019 BKN024 28/25 Q1005 NOSIG
  • 041800Z 13005KT 9999 SCT020 29/25 Q1006 NOSIG

TAF TAF VVNB
Valido dal 04 a 18 ore il 05 a 18 ore UTC


041700Z 0418/0518 10008KT 9999 SCT020
TEMPO 0420/0501 4000 TSRA SCT015 FEW025CB BKN040
TEMPO 0509/0514 4000 TSRA SCT015 FEW027CB BKN040
FIR VVVV / Asia



MetMap, La meteo Aeronautica in un colpo d'occhio ! - Copyright ORBIFLY Dicembre 2007 - Disclaimer

ORBIFLY MET'MAP TEAM :

Programmazione e sviluppo : Alexandra Zaïnal
Concezione : Baudouin d'Aumeries
Aiuto per la programmazione : Marc-Olivier Méhu
Supporto tecnico e logistico : Manuel Goepfert
Aiuto per la traduzione : Arnaldo La Scala

Contatto : metmap@orbifly.com




FONTI E CREDITI :

   NOAA       Earth
Advisory